createdAt,value
2023-02-17T00:01:15.672Z,84.30
2023-02-17T00:03:43.336Z,84.30
2023-02-17T00:06:11.822Z,84.30
2023-02-17T00:08:38.877Z,84.30
2023-02-17T00:11:06.057Z,84.30
2023-02-17T00:13:33.405Z,84.40
2023-02-17T00:16:00.566Z,84.40
2023-02-17T00:18:27.589Z,84.50
2023-02-17T00:20:54.508Z,84.60
2023-02-17T00:23:21.527Z,84.70
2023-02-17T00:25:48.532Z,84.70
2023-02-17T00:28:15.612Z,84.80
2023-02-17T00:30:42.810Z,84.80
2023-02-17T00:33:09.845Z,84.90
2023-02-17T00:35:40.624Z,85.00
2023-02-17T00:38:09.039Z,85.00
2023-02-17T00:40:36.018Z,85.00
2023-02-17T00:43:03.010Z,85.00
2023-02-17T00:45:30.044Z,84.90
2023-02-17T00:47:57.106Z,84.90
2023-02-17T00:50:24.115Z,84.90
2023-02-17T00:52:51.160Z,84.90
2023-02-17T00:55:18.239Z,84.90
2023-02-17T00:57:45.235Z,84.90
2023-02-17T01:00:12.846Z,84.90
2023-02-17T01:02:39.914Z,84.80
2023-02-17T01:05:07.560Z,84.80
2023-02-17T01:07:34.609Z,84.70
2023-02-17T01:10:01.533Z,84.80
2023-02-17T01:12:28.547Z,84.80
2023-02-17T01:14:55.531Z,84.70
2023-02-17T01:17:23.843Z,84.70
2023-02-17T01:19:50.822Z,84.70
2023-02-17T01:22:17.940Z,84.70
2023-02-17T01:24:44.954Z,84.70
2023-02-17T01:27:11.962Z,84.60
2023-02-17T01:29:39.003Z,84.60
2023-02-17T01:32:06.061Z,84.60
2023-02-17T01:34:33.075Z,84.60
2023-02-17T01:37:00.114Z,84.60
2023-02-17T01:39:27.040Z,84.60
2023-02-17T01:41:54.106Z,84.60
2023-02-17T01:44:24.353Z,84.60
2023-02-17T01:46:53.440Z,84.60
2023-02-17T01:49:31.791Z,84.50
2023-02-17T01:52:20.677Z,84.60
2023-02-17T01:54:54.551Z,84.50
2023-02-17T01:57:26.648Z,84.50
2023-02-17T01:59:54.130Z,84.50
2023-02-17T02:02:22.062Z,84.60
2023-02-17T02:04:53.377Z,84.60
2023-02-17T02:07:28.698Z,84.60
2023-02-17T02:09:58.021Z,84.60
2023-02-17T02:12:40.049Z,84.60
2023-02-17T02:15:21.169Z,84.60
2023-02-17T02:18:06.230Z,84.70
2023-02-17T02:20:51.590Z,84.60
2023-02-17T02:24:17.988Z,84.70
2023-02-17T02:27:07.198Z,84.70
2023-02-17T02:29:48.971Z,84.70
2023-02-17T02:32:52.776Z,84.70
2023-02-17T02:35:27.935Z,84.70
2023-02-17T02:38:15.736Z,84.70
2023-02-17T02:40:51.612Z,84.70
2023-02-17T02:43:19.075Z,84.70
2023-02-17T02:45:46.147Z,84.80
2023-02-17T02:48:13.238Z,84.70
2023-02-17T02:50:43.816Z,84.80
2023-02-17T02:53:13.345Z,84.80
2023-02-17T02:56:02.412Z,84.80
2023-02-17T02:58:43.956Z,84.80
2023-02-17T03:01:30.278Z,84.80
2023-02-17T03:04:12.993Z,84.80
2023-02-17T03:06:57.767Z,84.70
2023-02-17T03:09:27.414Z,84.80
2023-02-17T03:11:57.122Z,84.80
2023-02-17T03:14:26.651Z,84.80
2023-02-17T03:16:55.435Z,84.80
2023-02-17T03:19:25.398Z,84.80
2023-02-17T03:22:21.439Z,84.80
2023-02-17T03:24:48.750Z,84.80
2023-02-17T03:27:15.725Z,84.80
2023-02-17T03:29:42.918Z,84.80
2023-02-17T03:32:10.205Z,84.80
2023-02-17T03:34:37.438Z,84.80
2023-02-17T03:37:04.527Z,84.80
2023-02-17T03:39:31.820Z,84.80
2023-02-17T03:41:58.869Z,84.80
2023-02-17T03:44:25.931Z,84.90
2023-02-17T03:46:52.897Z,84.90
2023-02-17T03:49:19.917Z,84.90
2023-02-17T03:51:46.977Z,85.00
2023-02-17T03:54:14.000Z,85.00
2023-02-17T03:56:41.029Z,85.10
2023-02-17T03:59:08.453Z,85.10
2023-02-17T04:01:35.726Z,85.20
2023-02-17T04:04:03.110Z,85.30
2023-02-17T04:06:30.297Z,85.30
2023-02-17T04:08:57.305Z,85.30
2023-02-17T04:11:24.252Z,85.30
2023-02-17T04:13:51.287Z,85.40
2023-02-17T04:16:18.528Z,85.40
2023-02-17T04:18:45.537Z,85.40
2023-02-17T04:21:12.640Z,85.40
2023-02-17T04:23:40.145Z,85.40
2023-02-17T04:26:08.801Z,85.50
2023-02-17T04:28:39.377Z,85.50
2023-02-17T04:31:06.920Z,85.50
2023-02-17T04:33:34.654Z,85.60
2023-02-17T04:36:01.831Z,85.60
2023-02-17T04:38:31.029Z,85.60
2023-02-17T04:40:59.591Z,85.70
2023-02-17T04:43:28.266Z,85.80
2023-02-17T04:45:55.861Z,85.90
2023-02-17T04:48:23.318Z,86.00
2023-02-17T04:50:50.566Z,86.10
2023-02-17T04:53:17.943Z,86.10
2023-02-17T04:55:47.690Z,86.20
2023-02-17T04:58:14.669Z,86.20
2023-02-17T05:00:41.674Z,86.40
2023-02-17T05:03:08.824Z,86.50
2023-02-17T05:05:35.852Z,86.50
2023-02-17T05:08:02.767Z,86.70
2023-02-17T05:10:29.866Z,86.70
2023-02-17T05:12:56.896Z,86.80
2023-02-17T05:15:23.861Z,86.80
2023-02-17T05:17:50.822Z,86.90
2023-02-17T05:20:18.011Z,86.90
2023-02-17T05:22:45.025Z,87.00
2023-02-17T05:25:11.959Z,87.10
2023-02-17T05:27:39.185Z,87.10
2023-02-17T05:30:06.755Z,87.20
2023-02-17T05:32:33.814Z,87.20
2023-02-17T05:35:00.825Z,87.30
2023-02-17T05:37:27.779Z,87.30
2023-02-17T05:39:54.820Z,87.30
2023-02-17T05:42:21.829Z,87.30
2023-02-17T05:44:48.830Z,87.40
2023-02-17T05:47:15.868Z,87.50
2023-02-17T05:49:42.860Z,87.50
2023-02-17T05:52:09.797Z,87.50
2023-02-17T05:54:36.771Z,87.50
2023-02-17T05:57:03.822Z,87.50
2023-02-17T05:59:30.873Z,87.50
2023-02-17T06:01:57.934Z,87.60
2023-02-17T06:04:24.941Z,87.60
2023-02-17T06:06:52.504Z,87.60
2023-02-17T06:09:19.562Z,87.70
2023-02-17T06:11:46.564Z,87.70
2023-02-17T06:14:13.623Z,87.70
2023-02-17T06:16:40.556Z,87.70
2023-02-17T06:19:07.580Z,87.80
2023-02-17T06:21:34.539Z,87.80
2023-02-17T06:24:01.518Z,87.70
2023-02-17T06:26:28.522Z,87.80
2023-02-17T06:28:55.513Z,87.80
2023-02-17T06:31:22.533Z,87.90
2023-02-17T06:33:49.706Z,87.90
2023-02-17T06:36:16.673Z,87.90
2023-02-17T06:38:43.660Z,87.90
2023-02-17T06:41:10.622Z,87.90
2023-02-17T06:43:37.625Z,87.90
2023-02-17T06:46:05.147Z,87.90
2023-02-17T06:48:33.288Z,88.00
2023-02-17T06:51:01.119Z,88.00
2023-02-17T06:53:28.207Z,88.00
2023-02-17T06:55:55.234Z,88.00
2023-02-17T06:58:22.370Z,88.00
2023-02-17T07:00:49.324Z,88.10
2023-02-17T07:03:16.301Z,88.10
2023-02-17T07:05:43.255Z,88.10
2023-02-17T07:08:10.398Z,88.20
2023-02-17T07:10:38.028Z,88.20
2023-02-17T07:13:05.162Z,88.20
2023-02-17T07:15:32.179Z,88.20
2023-02-17T07:17:59.293Z,88.30
2023-02-17T07:20:26.299Z,88.30
2023-02-17T07:22:53.305Z,88.30
2023-02-17T07:25:20.289Z,88.30
2023-02-17T07:27:47.261Z,88.30
2023-02-17T07:30:14.758Z,88.30
2023-02-17T07:32:43.294Z,88.40
2023-02-17T07:35:10.594Z,88.40
2023-02-17T07:37:37.687Z,88.40
2023-02-17T07:40:05.645Z,88.50
2023-02-17T07:42:32.755Z,88.50
2023-02-17T07:44:59.698Z,88.60
2023-02-17T07:47:26.662Z,88.60
2023-02-17T07:49:53.588Z,88.60
2023-02-17T07:52:20.627Z,88.60
2023-02-17T07:54:47.594Z,88.60
2023-02-17T07:57:14.613Z,88.50
2023-02-17T07:59:41.699Z,88.50
2023-02-17T08:02:11.975Z,88.50
2023-02-17T08:04:38.982Z,88.50
2023-02-17T08:07:06.134Z,88.40
2023-02-17T08:09:51.577Z,88.20
2023-02-17T08:12:38.789Z,88.10
2023-02-17T08:15:07.778Z,88.00
2023-02-17T08:17:35.051Z,87.80
2023-02-17T08:20:08.367Z,87.70
2023-02-17T08:22:36.745Z,87.60
2023-02-17T08:25:06.090Z,87.50
2023-02-17T08:27:33.446Z,87.30
2023-02-17T08:30:00.568Z,87.30
2023-02-17T08:32:27.758Z,87.30
2023-02-17T08:34:57.633Z,87.20
2023-02-17T08:37:25.484Z,87.20
2023-02-17T08:39:52.537Z,87.20
2023-02-17T08:42:19.990Z,87.10
2023-02-17T08:44:47.129Z,87.00
2023-02-17T08:47:14.274Z,87.00
2023-02-17T08:49:41.335Z,87.00
2023-02-17T08:52:08.892Z,87.00
2023-02-17T08:54:37.616Z,86.90
2023-02-17T08:57:04.707Z,86.80
2023-02-17T08:59:31.698Z,86.80
2023-02-17T09:01:58.892Z,86.80
2023-02-17T09:04:26.243Z,86.80
2023-02-17T09:06:56.639Z,86.80
2023-02-17T09:09:28.501Z,86.90
2023-02-17T09:11:58.042Z,86.90
2023-02-17T09:14:25.616Z,86.90
2023-02-17T09:16:53.482Z,86.80
2023-02-17T09:19:20.888Z,86.80
2023-02-17T09:21:48.454Z,86.80
2023-02-17T09:24:16.589Z,86.80
2023-02-17T09:26:43.585Z,86.90
2023-02-17T09:29:11.009Z,86.90
2023-02-17T09:31:38.202Z,86.90
2023-02-17T09:34:06.168Z,86.30
2023-02-17T09:36:39.668Z,85.60
2023-02-17T09:39:07.169Z,85.60
2023-02-17T09:41:42.520Z,85.20
2023-02-17T09:44:27.199Z,84.80
2023-02-17T09:47:02.888Z,84.70
2023-02-17T09:50:05.683Z,84.40
2023-02-17T09:52:53.624Z,84.30
2023-02-17T09:55:24.063Z,84.10
2023-02-17T09:58:23.178Z,84.10
2023-02-17T10:01:02.658Z,84.10
2023-02-17T10:03:37.437Z,84.00
2023-02-17T10:06:07.897Z,83.70
2023-02-17T10:08:49.723Z,83.50
2023-02-17T10:11:34.547Z,83.20
2023-02-17T10:14:30.246Z,82.80
2023-02-17T10:17:08.933Z,82.90
2023-02-17T10:19:57.433Z,82.90
2023-02-17T10:22:25.841Z,82.80
2023-02-17T10:24:53.686Z,82.60
2023-02-17T10:27:37.489Z,82.40
2023-02-17T10:30:28.557Z,82.10
2023-02-17T10:33:31.409Z,81.90
2023-02-17T10:36:03.526Z,82.10
2023-02-17T10:38:42.538Z,82.00
2023-02-17T10:41:14.739Z,81.80
2023-02-17T10:43:43.074Z,81.60
2023-02-17T10:46:12.462Z,81.20
2023-02-17T10:48:48.004Z,80.70
2023-02-17T10:51:23.136Z,80.80
2023-02-17T10:53:57.557Z,80.20
2023-02-17T10:56:33.569Z,80.10
2023-02-17T10:59:04.653Z,79.60
2023-02-17T11:01:33.463Z,79.60
2023-02-17T11:04:13.657Z,79.50
2023-02-17T11:06:53.613Z,79.80
2023-02-17T11:09:32.095Z,79.70
2023-02-17T11:12:10.252Z,79.70
2023-02-17T11:14:38.046Z,79.20
2023-02-17T11:17:32.381Z,79.10
2023-02-17T11:20:08.689Z,78.70
2023-02-17T11:22:40.934Z,78.40
2023-02-17T11:25:24.801Z,78.50
2023-02-17T11:27:53.415Z,78.50
2023-02-17T11:30:21.029Z,78.80
2023-02-17T11:32:48.675Z,78.80
2023-02-17T11:35:47.005Z,79.00
2023-02-17T11:38:17.402Z,78.90
2023-02-17T11:41:00.677Z,79.20
2023-02-17T11:43:29.467Z,79.20
2023-02-17T11:46:03.564Z,79.30
2023-02-17T11:48:52.304Z,79.40
2023-02-17T11:51:58.238Z,79.30
2023-02-17T11:54:51.374Z,79.40
2023-02-17T11:57:37.233Z,79.50
2023-02-17T12:00:38.483Z,79.80
2023-02-17T12:03:29.543Z,80.00
2023-02-17T12:06:14.233Z,80.40
2023-02-17T12:09:04.948Z,80.70
2023-02-17T12:11:37.197Z,80.70
2023-02-17T12:14:45.852Z,80.70
2023-02-17T12:17:18.931Z,80.80
2023-02-17T12:20:17.174Z,80.80
2023-02-17T12:23:08.409Z,80.90
2023-02-17T12:25:53.134Z,80.70
2023-02-17T12:28:25.945Z,80.40
2023-02-17T12:31:14.506Z,80.50
2023-02-17T12:33:56.637Z,80.60
2023-02-17T12:36:30.557Z,80.50
2023-02-17T12:39:00.315Z,80.50
2023-02-17T12:41:45.724Z,80.50
2023-02-17T12:44:22.645Z,80.60
2023-02-17T12:46:53.749Z,80.50
2023-02-17T12:49:31.046Z,80.30
2023-02-17T12:52:00.145Z,80.50
2023-02-17T12:54:38.678Z,80.70
2023-02-17T12:57:17.322Z,80.20
2023-02-17T12:59:50.413Z,80.10
2023-02-17T13:02:23.144Z,80.20
2023-02-17T13:04:53.112Z,80.40
2023-02-17T13:07:26.451Z,80.00
2023-02-17T13:09:55.859Z,79.70
2023-02-17T13:12:22.786Z,79.10
2023-02-17T13:14:52.241Z,79.00
2023-02-17T13:17:25.220Z,78.90
2023-02-17T13:20:10.504Z,79.00
2023-02-17T13:22:42.336Z,79.30
2023-02-17T13:25:31.984Z,79.40
2023-02-17T13:28:01.781Z,79.60
2023-02-17T13:30:39.352Z,79.90
2023-02-17T13:33:21.089Z,80.10
2023-02-17T13:35:49.054Z,80.00
2023-02-17T13:38:36.258Z,79.90
2023-02-17T13:41:07.021Z,79.90
2023-02-17T13:43:42.211Z,80.00
2023-02-17T13:46:15.465Z,80.10
2023-02-17T13:48:42.562Z,79.70
2023-02-17T13:51:26.204Z,79.60
2023-02-17T13:53:53.526Z,79.70
2023-02-17T13:56:29.517Z,79.60
2023-02-17T13:59:18.451Z,79.60
2023-02-17T14:01:47.104Z,79.60
2023-02-17T14:04:27.451Z,79.90
2023-02-17T14:06:57.135Z,80.00
2023-02-17T14:09:28.194Z,79.80
2023-02-17T14:11:55.966Z,79.60
2023-02-17T14:14:33.140Z,79.40
2023-02-17T14:17:05.114Z,79.50
2023-02-17T14:19:47.365Z,79.20
2023-02-17T14:22:34.853Z,79.60
2023-02-17T14:25:08.398Z,79.80
2023-02-17T14:27:47.164Z,79.80
2023-02-17T14:30:27.475Z,79.90
2023-02-17T14:33:07.311Z,80.00
2023-02-17T14:35:35.581Z,80.30
2023-02-17T14:38:32.262Z,80.20
2023-02-17T14:41:01.168Z,80.40
2023-02-17T14:43:28.314Z,80.30
2023-02-17T14:45:55.358Z,80.30
2023-02-17T14:48:22.449Z,80.50
2023-02-17T14:50:50.102Z,80.50
2023-02-17T14:53:31.010Z,80.60
2023-02-17T14:56:07.471Z,80.60
2023-02-17T14:58:34.865Z,80.60
2023-02-17T15:01:01.991Z,80.50
2023-02-17T15:03:29.054Z,80.30
2023-02-17T15:05:56.130Z,80.40
2023-02-17T15:08:33.015Z,80.50
2023-02-17T15:11:00.580Z,80.20
2023-02-17T15:13:27.666Z,80.30
2023-02-17T15:15:54.924Z,80.40
2023-02-17T15:18:22.096Z,80.50
2023-02-17T15:20:51.410Z,80.70
2023-02-17T15:23:25.608Z,80.80
2023-02-17T15:25:54.838Z,80.80
2023-02-17T15:28:22.412Z,80.80
2023-02-17T15:30:53.092Z,80.90
2023-02-17T15:33:21.345Z,80.90
2023-02-17T15:35:53.542Z,80.90
2023-02-17T15:38:21.208Z,80.90
2023-02-17T15:40:48.212Z,80.90
2023-02-17T15:43:22.662Z,80.90
2023-02-17T15:45:49.974Z,81.00
2023-02-17T15:48:29.911Z,81.00
2023-02-17T15:50:56.946Z,81.00
2023-02-17T15:53:23.950Z,81.00
2023-02-17T15:55:52.359Z,81.10
2023-02-17T15:58:22.255Z,81.10
2023-02-17T16:00:51.188Z,81.20
2023-02-17T16:03:18.715Z,81.20
2023-02-17T16:05:45.950Z,81.30
2023-02-17T16:08:12.975Z,81.40
2023-02-17T16:10:42.493Z,81.40
2023-02-17T16:13:14.717Z,81.40
2023-02-17T16:15:42.622Z,81.40
2023-02-17T16:18:23.861Z,81.50
2023-02-17T16:20:52.067Z,81.50
2023-02-17T16:23:19.109Z,81.50
2023-02-17T16:25:47.386Z,81.50
2023-02-17T16:28:19.884Z,81.70
2023-02-17T16:30:49.597Z,81.70
2023-02-17T16:33:17.790Z,81.80
2023-02-17T16:35:45.430Z,81.90
2023-02-17T16:38:24.775Z,82.00
2023-02-17T16:40:52.695Z,82.10
2023-02-17T16:43:23.047Z,82.10
2023-02-17T16:45:56.180Z,82.20
2023-02-17T16:48:25.005Z,82.40
2023-02-17T16:50:52.269Z,82.50
2023-02-17T16:53:19.734Z,82.60
2023-02-17T16:55:47.044Z,82.80
2023-02-17T16:58:23.187Z,82.90
2023-02-17T17:00:53.041Z,83.00
2023-02-17T17:03:22.273Z,83.10
2023-02-17T17:05:51.494Z,83.20
2023-02-17T17:08:21.294Z,83.30
2023-02-17T17:10:49.581Z,83.50
2023-02-17T17:13:17.039Z,83.50
2023-02-17T17:15:45.475Z,83.60
2023-02-17T17:18:21.387Z,83.70
2023-02-17T17:20:48.990Z,83.70
2023-02-17T17:23:16.091Z,83.80
2023-02-17T17:25:46.628Z,83.80
2023-02-17T17:28:16.166Z,83.90
2023-02-17T17:30:43.461Z,84.00
2023-02-17T17:33:10.587Z,84.00
2023-02-17T17:35:38.096Z,84.20
2023-02-17T17:38:05.608Z,84.30
2023-02-17T17:40:48.479Z,84.40
2023-02-17T17:43:20.986Z,84.60
2023-02-17T17:45:50.323Z,84.60
2023-02-17T17:48:18.622Z,84.60
2023-02-17T17:50:45.814Z,84.60
2023-02-17T17:53:12.866Z,84.60
2023-02-17T17:55:40.003Z,84.60
2023-02-17T17:58:07.065Z,84.70
2023-02-17T18:00:34.148Z,84.70
2023-02-17T18:03:01.208Z,84.80
2023-02-17T18:05:30.044Z,85.00
2023-02-17T18:07:57.303Z,85.10
2023-02-17T18:10:24.437Z,85.10
2023-02-17T18:12:51.620Z,85.20
2023-02-17T18:15:19.281Z,85.20
2023-02-17T18:17:47.649Z,85.20
2023-02-17T18:20:14.806Z,85.20
2023-02-17T18:22:41.886Z,85.30
2023-02-17T18:25:09.063Z,85.30
2023-02-17T18:27:45.278Z,85.30
2023-02-17T18:30:15.672Z,85.30
2023-02-17T18:32:44.263Z,85.30
2023-02-17T18:35:12.761Z,85.40
2023-02-17T18:37:41.115Z,85.30
2023-02-17T18:40:12.589Z,85.40
2023-02-17T18:42:41.303Z,85.40
2023-02-17T18:45:09.059Z,85.40
2023-02-17T18:47:36.206Z,85.40
2023-02-17T18:50:04.353Z,85.40
2023-02-17T18:52:31.385Z,85.30
2023-02-17T18:54:58.370Z,85.40
2023-02-17T18:57:25.639Z,85.30
2023-02-17T18:59:52.617Z,85.40
2023-02-17T19:02:22.009Z,85.40
2023-02-17T19:04:51.944Z,85.40
2023-02-17T19:07:19.290Z,85.30
2023-02-17T19:09:46.334Z,85.30
2023-02-17T19:12:13.695Z,85.30
2023-02-17T19:14:41.859Z,85.30
2023-02-17T19:17:10.096Z,85.30
2023-02-17T19:19:40.938Z,85.30
2023-02-17T19:22:09.518Z,85.30
2023-02-17T19:24:38.177Z,85.40
2023-02-17T19:27:06.002Z,85.40
2023-02-17T19:29:33.311Z,85.40
2023-02-17T19:32:01.931Z,85.50
2023-02-17T19:34:30.027Z,85.50
2023-02-17T19:36:57.063Z,85.50
2023-02-17T19:39:24.070Z,85.60
2023-02-17T19:41:51.051Z,85.60
2023-02-17T19:44:18.127Z,85.70
2023-02-17T19:46:45.252Z,85.70
2023-02-17T19:49:12.338Z,85.80
2023-02-17T19:51:39.611Z,85.80
2023-02-17T19:54:07.019Z,86.00
2023-02-17T19:56:36.292Z,86.10
2023-02-17T19:59:03.488Z,86.10
2023-02-17T20:01:32.243Z,86.20
2023-02-17T20:04:04.340Z,86.20
2023-02-17T20:06:46.190Z,86.20
2023-02-17T20:09:20.078Z,86.30
2023-02-17T20:11:48.047Z,86.30
2023-02-17T20:14:15.346Z,86.40
2023-02-17T20:16:42.524Z,86.40
2023-02-17T20:19:09.888Z,86.50
2023-02-17T20:21:38.681Z,86.60
2023-02-17T20:24:06.028Z,86.60
2023-02-17T20:26:38.698Z,86.70
2023-02-17T20:29:05.735Z,86.60
2023-02-17T20:31:34.751Z,86.70
2023-02-17T20:34:06.474Z,86.70
2023-02-17T20:36:33.584Z,86.70
2023-02-17T20:39:00.986Z,86.80
2023-02-17T20:41:28.718Z,86.80
2023-02-17T20:43:55.692Z,86.90
2023-02-17T20:46:28.382Z,86.90
2023-02-17T20:48:56.078Z,86.90
2023-02-17T20:51:23.612Z,86.90
2023-02-17T20:53:51.103Z,86.90
2023-02-17T20:56:23.575Z,87.00
2023-02-17T20:58:51.948Z,87.00
2023-02-17T21:01:19.848Z,87.00
2023-02-17T21:03:47.212Z,87.00
2023-02-17T21:06:21.653Z,87.00
2023-02-17T21:08:51.851Z,87.00
2023-02-17T21:11:18.945Z,87.00
2023-02-17T21:13:46.461Z,86.90
2023-02-17T21:16:15.395Z,87.00
2023-02-17T21:18:43.191Z,87.00
2023-02-17T21:21:12.173Z,87.00
2023-02-17T21:23:39.709Z,86.90
2023-02-17T21:26:08.616Z,86.90
2023-02-17T21:28:36.695Z,86.90
2023-02-17T21:31:04.381Z,86.90
2023-02-17T21:33:31.684Z,86.90
2023-02-17T21:35:58.855Z,86.90
2023-02-17T21:38:25.828Z,86.90
2023-02-17T21:40:52.856Z,86.90
2023-02-17T21:43:38.392Z,86.90
2023-02-17T21:46:10.687Z,86.90
2023-02-17T21:48:38.413Z,86.90
2023-02-17T21:51:07.652Z,86.90
2023-02-17T21:53:35.261Z,86.90
2023-02-17T21:56:03.404Z,87.00
2023-02-17T21:58:30.856Z,87.00
2023-02-17T22:00:57.997Z,87.00
2023-02-17T22:03:25.479Z,87.00
2023-02-17T22:05:52.898Z,87.00
2023-02-17T22:08:20.004Z,87.00
2023-02-17T22:10:48.367Z,87.00
2023-02-17T22:13:15.397Z,87.00
2023-02-17T22:15:42.629Z,87.10
2023-02-17T22:18:09.752Z,87.10
2023-02-17T22:20:37.415Z,87.10
2023-02-17T22:23:04.413Z,87.10
2023-02-17T22:25:31.764Z,87.10
2023-02-17T22:27:58.790Z,87.10
2023-02-17T22:30:26.354Z,87.10
2023-02-17T22:32:53.403Z,87.10
2023-02-17T22:35:21.000Z,87.10
2023-02-17T22:37:48.053Z,87.20
2023-02-17T22:40:15.257Z,87.20
2023-02-17T22:42:42.241Z,87.10
2023-02-17T22:45:09.400Z,87.10
2023-02-17T22:47:36.452Z,87.20
2023-02-17T22:50:03.992Z,87.20
2023-02-17T22:52:30.996Z,87.10
2023-02-17T22:54:58.059Z,87.10
2023-02-17T22:57:25.136Z,87.10
2023-02-17T22:59:52.293Z,87.10
2023-02-17T23:02:19.294Z,87.10
2023-02-17T23:04:47.986Z,87.10
2023-02-17T23:07:15.181Z,87.10
2023-02-17T23:09:42.164Z,87.20
2023-02-17T23:12:09.144Z,87.20
2023-02-17T23:14:39.157Z,87.20
2023-02-17T23:17:09.502Z,87.20
2023-02-17T23:19:37.741Z,87.20
2023-02-17T23:22:07.712Z,87.20
2023-02-17T23:24:34.906Z,87.20
2023-02-17T23:27:03.293Z,87.20
2023-02-17T23:29:31.298Z,87.20
2023-02-17T23:31:59.099Z,87.20
2023-02-17T23:34:26.972Z,87.20
2023-02-17T23:36:53.941Z,87.20
2023-02-17T23:39:21.000Z,87.30
2023-02-17T23:41:48.177Z,87.20
2023-02-17T23:44:16.072Z,87.30
2023-02-17T23:46:44.664Z,87.30
2023-02-17T23:49:17.231Z,87.30
2023-02-17T23:51:45.398Z,87.30
2023-02-17T23:54:12.433Z,87.30
2023-02-17T23:56:39.489Z,87.30
2023-02-17T23:59:07.030Z,87.30
